Time;durP1;ratioP1;P1;durP2;ratioP2;P2;SDS_P1;SDS_P2;PMS_P1;PMS_P2;Temp;Humidity;BMP_temperature;BMP_pressure;BME280_temperature;BME280_humidity;BME280_pressure;Samples;Min_cycle;Max_cycle;Signal;HPM_P1;HPM_P2
2023/09/10 00:00:52;;;;;;;92.23;44.87;;;20.60;99.90;;;;;;4195565;34;20478;-86
2023/09/10 00:03:57;;;;;;;;;;;;;;;;;;;;;
2023/09/10 00:06:26;;;;;;;93.97;41.80;;;20.60;99.90;;;;;;4195655;34;20526;-87
2023/09/10 00:09:14;;;;;;;86.67;40.43;;;20.50;99.90;;;;;;4193135;34;20494;-87
2023/09/10 00:12:04;;;;;;;93.57;42.50;;;20.40;99.90;;;;;;4186635;34;20479;-86
2023/09/10 00:14:39;;;;;;;91.43;46.97;;;20.30;99.90;;;;;;4186310;34;20519;-86
2023/09/10 00:17:18;;;;;;;92.63;42.53;;;20.30;99.90;;;;;;4196934;34;20804;-86
2023/09/10 00:19:54;;;;;;;94.40;47.67;;;20.30;99.90;;;;;;4306623;32;20474;-87
2023/09/10 00:22:28;;;;;;;88.63;43.83;;;20.50;99.90;;;;;;3894575;31;17928991;-86
2023/09/10 00:25:10;;;;;;;96.53;49.93;;;20.40;99.90;;;;;;4484408;31;20573;-87
2023/09/10 00:27:36;;;;;;;92.10;46.27;;;20.40;99.90;;;;;;4532602;31;20453;-86
2023/09/10 00:30:08;;;;;;;93.80;43.53;;;20.20;99.90;;;;;;4555427;31;20460;-87
2023/09/10 00:32:48;;;;;;;89.30;45.37;;;20.30;99.90;;;;;;4555074;31;20682;-87
2023/09/10 00:35:23;;;;;;;95.63;50.67;;;20.50;99.90;;;;;;4541792;31;20406;-86
2023/09/10 00:38:06;;;;;;;96.10;49.30;;;20.40;99.90;;;;;;4554481;31;20855;-87
2023/09/10 00:40:38;;;;;;;92.13;50.43;;;20.30;99.90;;;;;;4554792;31;20534;-87
2023/09/10 00:43:09;;;;;;;91.70;43.63;;;20.20;99.90;;;;;;4555201;31;20458;-87
2023/09/10 00:45:56;;;;;;;95.43;46.07;;;20.20;99.90;;;;;;4542934;31;20853;-86
2023/09/10 00:48:22;;;;;;;94.70;48.03;;;20.20;99.90;;;;;;4554649;31;20466;-87
2023/09/10 00:50:53;;;;;;;93.37;47.43;;;20.20;99.90;;;;;;4554563;31;20457;-86
2023/09/10 00:53:23;;;;;;;96.87;53.53;;;20.30;99.90;;;;;;4541886;31;20414;-87
2023/09/10 00:55:51;;;;;;;96.03;52.43;;;20.40;99.90;;;;;;4554752;31;20434;-86
2023/09/10 00:58:27;;;;;;;94.67;50.53;;;20.40;99.90;;;;;;4558455;31;20523;-87
2023/09/10 01:01:04;;;;;;;93.77;47.97;;;20.30;99.90;;;;;;4541740;31;20964;-86
2023/09/10 01:03:40;;;;;;;94.33;52.03;;;20.20;99.90;;;;;;4542077;31;20425;-86
2023/09/10 01:06:11;;;;;;;98.47;51.80;;;20.20;99.90;;;;;;4555442;31;20437;-87
2023/09/10 01:08:47;;;;;;;104.43;50.40;;;20.20;99.90;;;;;;4554805;31;20532;-86
2023/09/10 01:11:21;;;;;;;95.57;46.77;;;20.30;99.90;;;;;;4554827;31;20467;-86
2023/09/10 01:14:41;;;;;;;91.70;44.03;;;20.10;99.90;;;;;;4541886;31;20783;-87
2023/09/10 01:17:39;;;;;;;108.23;54.87;;;20.10;99.90;;;;;;4605345;31;20983;-87
2023/09/10 01:20:24;;;;;;;103.93;52.07;;;20.10;99.90;;;;;;4562008;31;20543;-86
2023/09/10 01:22:59;;;;;;;92.20;45.00;;;20.00;99.90;;;;;;4645036;30;20448;-86
2023/09/10 01:25:25;;;;;;;90.93;40.37;;;19.90;99.90;;;;;;4702565;30;20448;-86
2023/09/10 01:28:04;;;;;;;98.40;43.53;;;19.90;99.90;;;;;;4721872;30;20552;-87
2023/09/10 01:30:42;;;;;;;94.43;41.10;;;19.90;99.90;;;;;;4725451;30;20450;-86
2023/09/10 01:34:08;;;;;;;97.27;45.00;;;20.10;99.90;;;;;;4725073;30;20427;-87
2023/09/10 01:36:50;;;;;;;102.83;51.80;;;20.10;99.90;;;;;;4741132;30;20539;-86
2023/09/10 01:39:40;;;;;;;96.03;47.40;;;20.20;99.90;;;;;;4740026;30;21012;-86
2023/09/10 01:42:17;;;;;;;96.00;50.93;;;20.20;99.90;;;;;;4726175;30;20997;-86
2023/09/10 01:45:06;;;;;;;94.23;44.90;;;20.20;99.90;;;;;;4739920;30;20439;-86
2023/09/10 01:47:35;;;;;;;103.37;50.20;;;20.10;99.90;;;;;;4726664;30;20423;-87
2023/09/10 01:50:04;;;;;;;98.00;45.73;;;20.00;99.90;;;;;;4725097;30;20443;-86
2023/09/10 01:52:43;;;;;;;96.73;45.37;;;20.00;99.90;;;;;;4739963;30;20428;-86
2023/09/10 01:55:12;;;;;;;95.13;44.13;;;19.90;99.90;;;;;;4726710;30;20400;-87
2023/09/10 01:57:41;;;;;;;94.87;46.43;;;20.00;99.90;;;;;;4739715;30;20853;-87
2023/09/10 02:00:12;;;;;;;96.67;42.43;;;20.10;99.90;;;;;;4726159;30;20436;-86
2023/09/10 02:02:41;;;;;;;98.03;43.80;;;20.00;99.90;;;;;;4726586;30;20423;-87
2023/09/10 02:05:12;;;;;;;92.37;40.93;;;19.90;99.90;;;;;;4725034;30;20439;-87
2023/09/10 02:07:47;;;;;;;89.10;42.83;;;19.90;99.90;;;;;;4740191;30;20432;-86
2023/09/10 02:10:31;;;;;;;99.00;46.93;;;20.00;99.90;;;;;;4739715;30;20451;-87
2023/09/10 02:13:00;;;;;;;99.13;41.23;;;20.10;99.90;;;;;;4726386;30;20435;-86
2023/09/10 02:15:35;;;;;;;95.23;44.27;;;19.90;99.90;;;;;;4739554;30;20428;-87
2023/09/10 02:18:04;;;;;;;91.80;43.87;;;19.90;99.90;;;;;;4726733;30;20473;-86
2023/09/10 02:20:43;;;;;;;90.63;39.80;;;19.80;99.90;;;;;;4757625;30;20479;-86
2023/09/10 02:23:09;;;;;;;91.73;42.43;;;19.70;99.90;;;;;;4826450;29;20460;-86
2023/09/10 02:25:43;;;;;;;87.20;35.77;;;19.70;99.90;;;;;;4905179;29;20422;-86
2023/09/10 02:28:11;;;;;;;89.50;36.70;;;19.70;99.90;;;;;;4927387;29;20447;-87
2023/09/10 02:30:50;;;;;;;88.53;40.80;;;19.60;99.90;;;;;;4940073;29;20437;-87
2023/09/10 02:33:26;;;;;;;87.20;38.20;;;19.60;99.90;;;;;;4944467;29;20385;-87
2023/09/10 02:36:13;;;;;;;94.93;40.20;;;19.60;99.90;;;;;;4928313;29;20476;-86
2023/09/10 02:38:40;;;;;;;89.93;40.63;;;19.60;99.90;;;;;;4943965;29;20480;-86
2023/09/10 02:41:11;;;;;;;85.10;33.60;;;19.60;99.90;;;;;;4942679;29;20504;-86
2023/09/10 02:43:40;;;;;;;87.73;37.53;;;19.50;99.90;;;;;;4943504;29;20504;-87
2023/09/10 02:46:20;;;;;;;97.57;40.73;;;19.50;99.90;;;;;;4926887;29;20454;-87
2023/09/10 02:48:59;;;;;;;91.60;42.43;;;19.60;99.90;;;;;;4944999;29;20396;-86
2023/09/10 02:51:30;;;;;;;95.23;44.00;;;19.70;99.90;;;;;;4945061;29;20525;-86
2023/09/10 02:53:59;;;;;;;94.07;36.50;;;19.80;99.90;;;;;;4943332;29;20944;-87
2023/09/10 02:56:28;;;;;;;92.87;40.80;;;19.70;99.90;;;;;;4944683;29;20503;-87
2023/09/10 02:58:57;;;;;;;91.03;41.03;;;19.60;99.90;;;;;;4944682;29;20455;-87
2023/09/10 03:01:41;;;;;;;91.43;40.83;;;19.60;99.90;;;;;;4926255;29;20479;-86
2023/09/10 03:04:09;;;;;;;92.77;44.13;;;19.50;99.90;;;;;;4928215;29;20405;-86
2023/09/10 03:07:01;;;;;;;94.50;46.70;;;19.50;99.90;;;;;;4944442;29;20484;-86
2023/09/10 03:09:27;;;;;;;95.80;42.60;;;19.40;99.90;;;;;;4944938;29;20457;-86
2023/09/10 03:11:56;;;;;;;94.80;43.87;;;19.40;99.90;;;;;;4945067;29;20468;-86
2023/09/10 03:14:53;;;;;;;93.90;45.47;;;19.40;99.90;;;;;;4927678;29;20947;-86
2023/09/10 03:17:15;;;;;;;101.30;41.27;;;19.40;99.90;;;;;;4941587;29;20409;-86
2023/09/10 03:19:44;;;;;;;93.90;38.03;;;19.50;99.90;;;;;;4952871;28;20448;-86
2023/09/10 03:22:13;;;;;;;90.07;38.00;;;19.60;99.90;;;;;;4980163;28;20431;-86
2023/09/10 03:24:47;;;;;;;89.53;37.13;;;19.70;99.90;;;;;;4953795;28;20937;-87
2023/09/10 03:27:20;;;;;;;94.93;40.53;;;19.70;99.90;;;;;;4944939;29;20460;-86
2023/09/10 03:29:46;;;;;;;93.80;44.03;;;19.70;99.90;;;;;;4944075;29;20484;-86
2023/09/10 03:32:21;;;;;;;94.70;46.30;;;19.60;99.90;;;;;;4944653;29;20410;-86
2023/09/10 03:34:56;;;;;;;93.90;44.70;;;19.70;99.90;;;;;;4942753;29;20420;-87
2023/09/10 03:37:25;;;;;;;93.67;42.93;;;19.70;99.90;;;;;;4944605;29;20441;-86
2023/09/10 03:40:20;;;;;;;96.90;41.70;;;19.60;99.90;;;;;;4942718;29;20436;-86
2023/09/10 03:42:49;;;;;;;99.10;49.17;;;19.60;99.90;;;;;;4942260;29;20405;-86
2023/09/10 03:45:17;;;;;;;95.73;46.87;;;19.40;99.90;;;;;;4946618;29;20441;-86
2023/09/10 03:47:54;;;;;;;102.13;60.73;;;19.30;99.90;;;;;;4945069;29;20889;-86
2023/09/10 03:50:25;;;;;;;93.93;50.57;;;19.20;99.90;;;;;;4947939;29;20460;-87
2023/09/10 03:53:10;;;;;;;99.20;61.37;;;19.30;99.90;;;;;;4947772;29;20417;-87
2023/09/10 03:55:42;;;;;;;101.37;61.03;;;19.20;99.90;;;;;;4947949;29;20425;-86
2023/09/10 03:58:13;;;;;;;102.77;68.00;;;19.20;99.90;;;;;;4947279;29;20879;-86
2023/09/10 04:00:47;;;;;;;105.90;61.30;;;19.10;99.90;;;;;;4947791;29;20905;-86
2023/09/10 04:03:22;;;;;;;93.70;50.13;;;19.20;99.90;;;;;;4947365;29;20398;-87
2023/09/10 04:05:56;;;;;;;95.90;53.67;;;19.30;99.90;;;;;;4946714;29;20909;-87
2023/09/10 04:08:40;;;;;;;97.00;49.80;;;19.30;99.90;;;;;;4945744;29;20452;-86
2023/09/10 04:11:09;;;;;;;93.17;48.83;;;19.20;99.90;;;;;;4946549;29;20489;-86
2023/09/10 04:13:43;;;;;;;94.77;57.60;;;19.20;99.90;;;;;;4946651;29;20417;-87
2023/09/10 04:16:27;;;;;;;102.33;62.00;;;19.20;99.90;;;;;;4947776;29;20394;-87
2023/09/10 04:19:02;;;;;;;99.57;66.03;;;19.10;99.90;;;;;;4943617;28;20464;-86
2023/09/10 04:21:33;;;;;;;100.50;56.47;;;19.00;99.90;;;;;;4978972;28;20476;-87
2023/09/10 04:24:05;;;;;;;99.33;60.37;;;19.10;99.90;;;;;;4995952;28;20437;-86
2023/09/10 04:26:34;;;;;;;101.90;62.93;;;19.00;99.90;;;;;;5024200;28;20382;-87
2023/09/10 04:29:06;;;;;;;95.40;61.83;;;19.00;99.90;;;;;;5024110;28;20868;-86
2023/09/10 04:31:49;;;;;;;96.47;61.97;;;19.10;99.90;;;;;;5024220;28;20425;-86
2023/09/10 04:34:37;;;;;;;97.77;61.70;;;19.00;99.90;;;;;;5026487;28;20405;-86
2023/09/10 04:37:27;;;;;;;102.70;71.63;;;19.00;99.90;;;;;;5025271;28;20408;-87
2023/09/10 04:40:07;;;;;;;99.97;66.20;;;19.10;99.90;;;;;;5026692;28;20505;-86
2023/09/10 04:42:44;;;;;;;97.03;61.73;;;19.00;99.90;;;;;;5023555;28;20431;-85
2023/09/10 04:45:36;;;;;;;97.27;57.53;;;19.10;99.90;;;;;;5022609;28;20413;-86
2023/09/10 04:48:23;;;;;;;98.40;67.37;;;19.10;99.90;;;;;;5018921;28;20425;-86
2023/09/10 04:50:53;;;;;;;101.90;74.73;;;19.00;99.90;;;;;;5023990;28;21044;-87
2023/09/10 04:53:32;;;;;;;100.90;67.17;;;19.00;99.90;;;;;;5024076;28;20394;-86
2023/09/10 04:55:59;;;;;;;96.57;63.20;;;19.00;99.90;;;;;;5031266;23;20490;-77
2023/09/10 04:58:24;;;;;;;101.07;63.80;;;18.90;99.90;;;;;;5014560;28;20470;-76
2023/09/10 05:00:50;;;;;;;95.13;58.13;;;18.90;99.90;;;;;;5014753;28;20452;-76
2023/09/10 05:03:16;;;;;;;101.47;59.13;;;18.90;99.90;;;;;;5014246;28;20189;-76
2023/09/10 05:05:42;;;;;;;97.73;58.57;;;19.00;99.90;;;;;;5014232;28;20434;-76
2023/09/10 05:08:08;;;;;;;103.60;56.77;;;18.90;99.90;;;;;;5029429;28;20421;-76
2023/09/10 05:10:33;;;;;;;99.47;59.60;;;18.90;99.90;;;;;;5014361;28;20559;-76
2023/09/10 05:12:59;;;;;;;98.40;53.70;;;18.90;99.90;;;;;;5012832;28;20669;-76
2023/09/10 05:15:24;;;;;;;99.10;54.93;;;18.90;99.90;;;;;;5014441;28;20515;-76
2023/09/10 05:17:50;;;;;;;103.87;58.63;;;18.80;99.90;;;;;;5014231;28;20728;-76
2023/09/10 05:20:16;;;;;;;102.97;57.50;;;18.90;99.90;;;;;;4976905;28;1304618;-76
2023/09/10 05:22:41;;;;;;;97.90;57.07;;;18.90;99.90;;;;;;5008527;28;20183;-76
2023/09/10 05:25:08;;;;;;;96.20;58.03;;;19.00;99.90;;;;;;5019766;28;20278;-76
2023/09/10 05:27:33;;;;;;;96.17;53.87;;;19.00;99.90;;;;;;5034776;28;20178;-76
2023/09/10 05:29:59;;;;;;;95.97;56.27;;;19.00;99.90;;;;;;5034537;28;20981;-76
2023/09/10 05:32:26;;;;;;;99.47;57.93;;;19.10;99.90;;;;;;5034736;28;20166;-76
2023/09/10 05:34:55;;;;;;;99.60;55.87;;;19.10;99.90;;;;;;5034365;28;20537;-76
2023/09/10 05:37:20;;;;;;;100.23;56.93;;;19.10;99.90;;;;;;5034330;28;20845;-76
2023/09/10 05:39:46;;;;;;;101.70;54.20;;;19.10;99.90;;;;;;5034464;28;20424;-76
2023/09/10 05:42:12;;;;;;;103.47;57.60;;;19.10;99.90;;;;;;5034212;28;20169;-76
2023/09/10 05:44:37;;;;;;;99.63;49.87;;;19.20;99.90;;;;;;5034244;28;20161;-76
2023/09/10 05:47:03;;;;;;;99.60;56.13;;;19.10;99.90;;;;;;5034331;28;20592;-76
2023/09/10 05:49:29;;;;;;;99.67;55.67;;;19.20;99.90;;;;;;5034061;28;20534;-76
2023/09/10 05:51:54;;;;;;;95.40;46.53;;;19.10;99.90;;;;;;5034617;28;20173;-76
2023/09/10 05:54:20;;;;;;;94.57;52.53;;;19.20;99.90;;;;;;5034383;28;20633;-76
2023/09/10 05:56:46;;;;;;;96.37;53.77;;;19.30;99.90;;;;;;5023722;28;20182;-76
2023/09/10 05:59:11;;;;;;;100.30;57.90;;;19.30;99.90;;;;;;5014171;28;20664;-76
2023/09/10 06:01:37;;;;;;;99.83;55.50;;;19.40;99.90;;;;;;5014158;28;20197;-76
2023/09/10 06:04:03;;;;;;;96.20;55.63;;;19.40;99.90;;;;;;5014421;28;20171;-76
2023/09/10 06:06:28;;;;;;;102.87;55.70;;;19.40;99.90;;;;;;5014467;28;20300;-76
2023/09/10 06:08:57;;;;;;;108.27;56.43;;;19.50;99.90;;;;;;5014398;28;20202;-76
2023/09/10 06:11:23;;;;;;;102.37;57.77;;;19.40;99.90;;;;;;5014431;28;20186;-76
2023/09/10 06:13:48;;;;;;;98.90;53.80;;;19.50;99.90;;;;;;5014369;28;20424;-76
2023/09/10 06:16:14;;;;;;;96.23;56.73;;;19.50;99.90;;;;;;5014025;28;20530;-77
2023/09/10 06:18:40;;;;;;;92.70;47.40;;;19.50;99.90;;;;;;5014156;28;20196;-76
2023/09/10 06:21:05;;;;;;;99.90;55.37;;;19.50;99.90;;;;;;5013727;28;20229;-76
2023/09/10 06:23:31;;;;;;;99.97;50.97;;;19.60;99.90;;;;;;5013773;28;20178;-76
2023/09/10 06:25:57;;;;;;;98.20;50.10;;;19.60;99.90;;;;;;5013770;28;20163;-76
2023/09/10 06:28:24;;;;;;;96.17;56.63;;;19.80;99.90;;;;;;5013796;28;20225;-77
2023/09/10 06:30:50;;;;;;;95.60;53.87;;;19.80;99.90;;;;;;5013751;28;20190;-76
2023/09/10 06:33:16;;;;;;;100.37;52.63;;;19.90;99.90;;;;;;5013664;28;20423;-76
2023/09/10 06:35:41;;;;;;;100.23;55.37;;;19.90;99.90;;;;;;5014157;28;20228;-76
2023/09/10 06:38:08;;;;;;;95.20;54.53;;;19.90;99.90;;;;;;5014052;28;20441;-78
2023/09/10 06:40:36;;;;;;;188.85;172.57;;;20.00;99.90;;;;;;5012322;28;20415;-76
2023/09/10 06:43:03;;;;;;;105.07;65.53;;;20.20;99.90;;;;;;5013526;28;20162;-76
2023/09/10 06:45:30;;;;;;;103.13;64.80;;;20.20;99.90;;;;;;4995883;28;20416;-76
2023/09/10 06:47:55;;;;;;;94.67;56.33;;;20.20;99.90;;;;;;5013436;28;20416;-76
2023/09/10 06:50:22;;;;;;;100.43;52.63;;;20.20;99.90;;;;;;5013396;28;20421;-76
2023/09/10 06:52:47;;;;;;;95.93;50.43;;;20.30;99.90;;;;;;5013739;28;20623;-76
2023/09/10 06:55:14;;;;;;;94.03;45.07;;;20.30;99.90;;;;;;5013375;28;20402;-76
2023/09/10 06:57:39;;;;;;;92.77;47.37;;;20.40;99.90;;;;;;4995790;28;20233;-76
2023/09/10 07:00:06;;;;;;;103.47;53.73;;;20.40;99.90;;;;;;5008736;28;20462;-76
2023/09/10 07:02:31;;;;;;;99.33;46.30;;;20.50;99.90;;;;;;4994033;28;20222;-76
2023/09/10 07:04:57;;;;;;;99.77;48.83;;;20.50;99.90;;;;;;5064655;23;20884;-78
2023/09/10 07:07:23;;;;;;;105.30;51.07;;;20.50;99.90;;;;;;5013690;28;20174;-77
2023/09/10 07:09:48;;;;;;;96.80;47.77;;;20.60;99.90;;;;;;5013253;28;20190;-76
2023/09/10 07:12:14;;;;;;;97.00;44.00;;;20.70;99.90;;;;;;5013527;28;20170;-77
2023/09/10 07:14:40;;;;;;;95.20;43.67;;;20.70;99.90;;;;;;5013262;28;20166;-77
2023/09/10 07:17:06;;;;;;;95.83;43.97;;;20.80;99.90;;;;;;5013085;28;20236;-77
2023/09/10 07:19:34;;;;;;;96.50;40.87;;;20.80;99.90;;;;;;5014381;28;20167;-77
2023/09/10 07:22:03;;;;;;;95.20;39.83;;;20.90;99.90;;;;;;5017175;28;20485;-77
2023/09/10 07:24:32;;;;;;;95.57;41.13;;;20.90;99.90;;;;;;5017154;28;20402;-77
2023/09/10 07:26:58;;;;;;;97.50;47.93;;;20.90;99.90;;;;;;5017040;28;20905;-77
2023/09/10 07:29:25;;;;;;;97.60;44.07;;;20.80;99.90;;;;;;5017280;28;20410;-77
2023/09/10 07:31:53;;;;;;;94.67;37.80;;;20.90;99.90;;;;;;5017177;28;20433;-77
2023/09/10 07:34:20;;;;;;;95.27;37.20;;;21.10;99.90;;;;;;5017391;28;20409;-77
2023/09/10 07:36:49;;;;;;;95.43;37.10;;;21.10;99.90;;;;;;5017141;28;20603;-77
2023/09/10 07:39:17;;;;;;;94.47;38.77;;;21.20;99.90;;;;;;5016738;28;20437;-77
2023/09/10 07:41:43;;;;;;;87.43;34.13;;;21.30;99.90;;;;;;4999124;28;20472;-77
2023/09/10 07:44:08;;;;;;;87.83;34.53;;;21.30;99.90;;;;;;5016834;28;20456;-77
2023/09/10 07:46:34;;;;;;;95.53;36.13;;;21.40;99.90;;;;;;5016643;28;20209;-77
2023/09/10 07:49:00;;;;;;;92.27;34.30;;;21.40;99.90;;;;;;5016935;28;20317;-77
2023/09/10 07:51:26;;;;;;;89.67;36.17;;;21.50;99.90;;;;;;5016526;28;20281;-76
2023/09/10 07:53:54;;;;;;;85.93;32.50;;;21.50;99.90;;;;;;5016528;28;20186;-77
2023/09/10 07:56:19;;;;;;;88.10;37.20;;;21.50;99.90;;;;;;4998941;28;20604;-77
2023/09/10 07:58:45;;;;;;;93.07;42.17;;;21.60;99.90;;;;;;5016648;28;20448;-77
2023/09/10 08:01:10;;;;;;;94.60;42.53;;;21.70;99.90;;;;;;5016387;28;20189;-77
2023/09/10 08:03:38;;;;;;;96.00;45.87;;;21.70;99.90;;;;;;5016385;28;20190;-77
2023/09/10 08:06:04;;;;;;;87.80;35.33;;;21.80;99.90;;;;;;5016279;28;20669;-77
2023/09/10 08:08:30;;;;;;;92.93;43.90;;;21.80;99.90;;;;;;5016405;28;20782;-77
2023/09/10 08:10:56;;;;;;;95.40;39.23;;;21.90;99.90;;;;;;5016126;28;20467;-76
2023/09/10 08:13:21;;;;;;;92.03;35.70;;;22.00;99.90;;;;;;5016231;28;20574;-77
2023/09/10 08:15:47;;;;;;;87.87;35.63;;;22.10;99.90;;;;;;4998608;28;20705;-77
2023/09/10 08:18:13;;;;;;;101.07;54.77;;;22.10;99.90;;;;;;5016053;28;20222;-76
2023/09/10 08:20:42;;;;;;;92.87;40.33;;;22.20;99.90;;;;;;5015983;28;20245;-77
2023/09/10 08:23:09;;;;;;;93.53;49.43;;;22.30;99.90;;;;;;5016363;28;20178;-77
2023/09/10 08:25:35;;;;;;;106.57;73.27;;;22.30;99.90;;;;;;5016067;28;20971;-77
2023/09/10 08:28:01;;;;;;;97.03;49.77;;;22.40;99.90;;;;;;5016447;28;20421;-78
2023/09/10 08:30:27;;;;;;;90.20;39.70;;;22.50;99.90;;;;;;5015751;28;20770;-78
2023/09/10 08:32:53;;;;;;;103.00;61.43;;;22.60;99.90;;;;;;5016116;28;20444;-78
2023/09/10 08:35:20;;;;;;;117.87;104.97;;;22.70;99.90;;;;;;5015962;28;20409;-77
2023/09/10 08:37:46;;;;;;;120.73;108.00;;;22.70;99.90;;;;;;5016102;28;20441;-78
2023/09/10 08:40:14;;;;;;;140.83;127.40;;;22.80;99.90;;;;;;5015775;28;20429;-78
2023/09/10 08:42:42;;;;;;;140.37;126.77;;;22.90;99.90;;;;;;4998457;28;20417;-78
2023/09/10 08:45:10;;;;;;;139.43;126.57;;;23.00;99.90;;;;;;5015959;28;20459;-78
2023/09/10 08:47:41;;;;;;;120.20;107.80;;;23.10;99.90;;;;;;5016210;28;20539;-78
2023/09/10 08:50:12;;;;;;;134.70;121.27;;;23.20;99.90;;;;;;5015760;28;20928;-77
2023/09/10 08:52:43;;;;;;;133.47;120.63;;;23.30;99.90;;;;;;5015865;28;20420;-78
2023/09/10 08:55:11;;;;;;;130.10;116.70;;;23.40;99.90;;;;;;4998613;28;20409;-78
2023/09/10 08:57:37;;;;;;;136.67;123.77;;;23.40;99.90;;;;;;5015415;28;20445;-78
2023/09/10 09:00:10;;;;;;;133.63;120.83;;;23.50;99.90;;;;;;5015440;28;20445;-78
2023/09/10 09:02:36;;;;;;;123.60;111.40;;;23.50;99.90;;;;;;5015913;28;20386;-78
2023/09/10 09:05:02;;;;;;;125.63;113.33;;;23.70;99.90;;;;;;5015462;28;20433;-77
2023/09/10 09:07:37;;;;;;;144.27;131.23;;;23.80;99.90;;;;;;5015638;28;20770;-78
2023/09/10 09:10:07;;;;;;;137.90;124.53;;;23.90;99.90;;;;;;5015491;28;20186;-78
2023/09/10 09:12:35;;;;;;;159.33;145.33;;;24.00;99.90;;;;;;5015410;28;20455;-78
2023/09/10 09:15:03;;;;;;;116.83;104.30;;;24.10;99.90;;;;;;5015376;28;20397;-78
2023/09/10 09:17:29;;;;;;;117.23;104.73;;;24.20;99.90;;;;;;5015205;28;20909;-78
2023/09/10 09:19:58;;;;;;;101.30;79.90;;;24.30;99.90;;;;;;5015222;28;20430;-78
2023/09/10 09:22:29;;;;;;;97.53;73.77;;;24.40;99.90;;;;;;5015344;28;20772;-78
2023/09/10 09:24:55;;;;;;;102.37;75.47;;;24.50;99.90;;;;;;5015762;28;20378;-78
2023/09/10 09:27:24;;;;;;;103.03;69.83;;;24.60;99.90;;;;;;5015357;28;20436;-78
2023/09/10 09:29:51;;;;;;;98.23;65.10;;;24.80;99.90;;;;;;5014914;28;20429;-78
2023/09/10 09:32:16;;;;;;;97.57;74.43;;;24.80;99.90;;;;;;5014983;28;20441;-78
2023/09/10 09:34:42;;;;;;;101.10;79.17;;;25.00;99.90;;;;;;5014844;28;20778;-78
2023/09/10 09:37:08;;;;;;;100.17;78.00;;;25.10;99.90;;;;;;5015102;28;20530;-78
2023/09/10 09:39:34;;;;;;;105.17;75.30;;;25.20;96.70;;;;;;5015195;28;20685;-78
2023/09/10 09:42:00;;;;;;;108.47;78.23;;;25.30;91.70;;;;;;5014712;28;20167;-78
2023/09/10 09:44:29;;;;;;;103.40;70.20;;;25.50;94.90;;;;;;5015003;28;20927;-78
2023/09/10 09:46:57;;;;;;;97.53;61.50;;;25.60;92.80;;;;;;5015026;28;20174;-78
2023/09/10 09:49:25;;;;;;;87.07;44.00;;;25.80;92.00;;;;;;5014817;28;20429;-78
2023/09/10 09:51:51;;;;;;;81.30;24.63;;;25.90;63.70;;;;;;5014789;28;20483;-78
2023/09/10 09:54:19;;;;;;;87.90;28.27;;;26.00;59.30;;;;;;5014888;28;20813;-78
2023/09/10 09:56:46;;;;;;;80.77;17.17;;;26.10;47.20;;;;;;5014816;28;20170;-78
2023/09/10 09:59:11;;;;;;;78.77;10.13;;;26.30;33.00;;;;;;5015167;28;20809;-78
2023/09/10 10:01:39;;;;;;;76.30;11.57;;;26.50;18.50;;;;;;5014756;28;20433;-78
2023/09/10 10:04:06;;;;;;;76.40;9.30;;;26.70;13.60;;;;;;5014679;28;20182;-78
2023/09/10 10:06:32;;;;;;;73.70;8.70;;;26.80;10.20;;;;;;5015119;28;20413;-78
2023/09/10 10:09:00;;;;;;;79.07;9.10;;;27.00;5.80;;;;;;5015063;28;20463;-78
2023/09/10 10:11:31;;;;;;;74.70;9.13;;;27.30;7.20;;;;;;5014973;28;20285;-78
2023/09/10 10:14:02;;;;;;;77.50;9.50;;;27.40;1.00;;;;;;5015446;28;20405;-78
2023/09/10 10:16:30;;;;;;;75.77;9.77;;;27.60;1.00;;;;;;5015157;28;20390;-78
2023/09/10 10:18:56;;;;;;;79.93;10.10;;;27.80;1.00;;;;;;5015034;28;20453;-78
2023/09/10 10:21:23;;;;;;;74.23;9.30;;;28.00;1.00;;;;;;5015341;28;20441;-78
2023/09/10 10:28:49;;;;;;;79.10;12.93;;;28.40;1.00;;;;;;4974962;28;20467;-78
2023/09/10 10:31:21;;;;;;;75.00;9.57;;;28.50;1.00;;;;;;4958808;28;20948;-78
2023/09/10 10:34:08;;;;;;;77.60;7.83;;;28.60;1.00;;;;;;4975863;28;20392;-78
2023/09/10 10:36:49;;;;;;;79.80;9.97;;;28.70;1.00;;;;;;4976400;28;20866;-78
2023/09/10 10:39:17;;;;;;;78.40;14.70;;;28.90;1.00;;;;;;4976162;28;20551;-78
2023/09/10 10:41:47;;;;;;;78.73;21.80;;;28.90;1.00;;;;;;4976113;28;20507;-79
2023/09/10 10:44:19;;;;;;;85.77;20.87;;;29.00;1.00;;;;;;4975984;28;20394;-78
2023/09/10 10:46:47;;;;;;;77.00;11.70;;;29.10;1.00;;;;;;4975962;28;20448;-78
2023/09/10 10:49:13;;;;;;;80.03;13.80;;;29.10;1.00;;;;;;4976130;28;20441;-78
2023/09/10 10:51:46;;;;;;;78.80;12.20;;;29.20;1.00;;;;;;4975965;28;20465;-78
2023/09/10 10:54:14;;;;;;;75.47;11.00;;;29.30;1.00;;;;;;4976082;28;20173;-78
2023/09/10 10:56:40;;;;;;;75.03;9.17;;;29.20;1.00;;;;;;5035735;23;20888;-82
2023/09/10 10:59:06;;;;;;;80.07;9.97;;;29.30;1.00;;;;;;4978530;28;20818;-82
2023/09/10 11:01:32;;;;;;;76.77;9.97;;;29.40;1.00;;;;;;4978614;28;20422;-83
2023/09/10 11:04:16;;;;;;;77.63;11.20;;;29.80;1.00;;;;;;4978702;28;20823;-83
2023/09/10 11:07:17;;;;;;;75.67;12.30;;;30.10;1.00;;;;;;4978228;28;20760;-82
2023/09/10 11:09:43;;;;;;;78.73;11.20;;;30.00;1.00;;;;;;4976771;28;20422;-83
2023/09/10 11:12:09;;;;;;;74.10;9.43;;;30.20;1.00;;;;;;4976509;28;20465;-82
2023/09/10 11:15:00;;;;;;;80.03;8.73;;;30.20;1.00;;;;;;4976238;28;20410;-83
2023/09/10 11:17:32;;;;;;;74.57;8.27;;;30.20;1.00;;;;;;4978009;28;20168;-82
2023/09/10 11:19:58;;;;;;;80.20;6.97;;;30.50;1.00;;;;;;4978909;28;20426;-83
2023/09/10 11:22:24;;;;;;;79.23;7.93;;;30.60;1.00;;;;;;4978425;28;20438;-82
2023/09/10 11:25:05;;;;;;;76.90;7.03;;;30.50;1.00;;;;;;4978658;28;20402;-83
2023/09/10 11:27:33;;;;;;;75.17;6.90;;;30.90;1.00;;;;;;4977979;28;20401;-83
2023/09/10 11:30:13;;;;;;;76.83;6.50;;;31.10;1.00;;;;;;4978229;28;20449;-83
2023/09/10 11:32:39;;;;;;;75.63;6.67;;;31.30;1.00;;;;;;4977915;28;20388;-82
2023/09/10 11:35:20;;;;;;;75.70;7.00;;;31.50;1.00;;;;;;4976976;28;20403;-84
2023/09/10 11:37:52;;;;;;;72.93;7.17;;;31.40;1.00;;;;;;4977441;28;20453;-83
2023/09/10 11:40:19;;;;;;;88.33;8.80;;;31.50;1.00;;;;;;4978352;28;20944;-83
2023/09/10 11:42:46;;;;;;;77.20;6.37;;;31.60;1.00;;;;;;4976463;28;20406;-81
2023/09/10 11:45:15;;;;;;;78.60;7.10;;;31.60;1.00;;;;;;4977533;28;20810;-83
2023/09/10 11:47:46;;;;;;;73.87;6.20;;;31.80;1.00;;;;;;4977684;28;20414;-83
2023/09/10 11:50:13;;;;;;;77.67;7.20;;;31.70;1.00;;;;;;4976558;28;20446;-85
2023/09/10 11:52:40;;;;;;;73.60;6.00;;;31.60;1.00;;;;;;4978613;28;20748;-84
2023/09/10 11:55:09;;;;;;;78.40;8.33;;;31.90;1.00;;;;;;4977691;28;20457;-83
2023/09/10 11:57:36;;;;;;;78.53;6.10;;;31.80;1.00;;;;;;4977400;28;20437;-83
2023/09/10 12:00:04;;;;;;;76.40;6.63;;;31.70;1.00;;;;;;4978491;28;20514;-83
2023/09/10 12:02:30;;;;;;;76.00;6.30;;;32.00;1.00;;;;;;4961178;28;20891;-84
2023/09/10 12:04:59;;;;;;;72.07;6.07;;;32.30;1.00;;;;;;4961164;28;20417;-85
2023/09/10 12:07:24;;;;;;;76.27;5.90;;;32.60;1.00;;;;;;4962964;28;20171;-83
2023/09/10 12:09:50;;;;;;;78.03;6.47;;;32.80;1.00;;;;;;4981435;28;20939;-83
2023/09/10 12:12:20;;;;;;;73.07;6.03;;;33.00;1.00;;;;;;4981616;28;20166;-82
2023/09/10 12:14:46;;;;;;;72.87;6.00;;;32.80;1.00;;;;;;4980454;28;20171;-85
2023/09/10 12:17:12;;;;;;;75.80;6.93;;;33.00;1.00;;;;;;4979873;28;20457;-84
2023/09/10 12:19:38;;;;;;;77.87;8.37;;;32.80;1.00;;;;;;4979143;28;20454;-85
2023/09/10 12:22:09;;;;;;;77.77;7.80;;;32.50;1.00;;;;;;4963381;28;20701;-82
2023/09/10 12:24:35;;;;;;;77.67;6.67;;;32.70;1.00;;;;;;4962929;28;20415;-85
2023/09/10 12:27:02;;;;;;;74.60;7.67;;;32.70;1.00;;;;;;4980308;28;20403;-85
2023/09/10 12:29:28;;;;;;;76.10;8.00;;;32.80;1.00;;;;;;4979434;28;20476;-84
2023/09/10 12:31:56;;;;;;;78.17;7.63;;;32.90;1.00;;;;;;4979289;28;20767;-85
2023/09/10 12:34:23;;;;;;;72.30;6.60;;;32.60;1.00;;;;;;4962456;28;20425;-82
2023/09/10 12:36:52;;;;;;;78.23;7.00;;;32.10;1.00;;;;;;4963790;28;20411;-85
2023/09/10 12:39:20;;;;;;;75.77;7.20;;;32.30;1.00;;;;;;4979779;28;20929;-86
2023/09/10 12:41:53;;;;;;;72.87;6.63;;;32.50;1.00;;;;;;4962596;28;20526;-82
2023/09/10 12:44:20;;;;;;;76.00;6.40;;;32.50;1.00;;;;;;4962476;28;20466;-86
2023/09/10 12:46:46;;;;;;;77.43;7.50;;;32.50;1.00;;;;;;4979510;28;20826;-83
2023/09/10 12:49:12;;;;;;;75.97;9.40;;;32.70;1.00;;;;;;4962673;28;20489;-82
2023/09/10 12:51:38;;;;;;;75.43;9.33;;;32.80;1.00;;;;;;4946196;28;20458;-82